sensor_id;sensor_type;location;lat;lon;timestamp;temperature;humidity
52513;DHT22;38422;53.172;6.974;2023-02-21T00:01:40;9.50;99.90
52513;DHT22;38422;53.172;6.974;2023-02-21T00:04:24;9.50;99.90
52513;DHT22;38422;53.172;6.974;2023-02-21T00:07:08;9.50;99.90
52513;DHT22;38422;53.172;6.974;2023-02-21T00:09:52;9.50;99.90
52513;DHT22;38422;53.172;6.974;2023-02-21T00:12:36;9.50;99.90
52513;DHT22;38422;53.172;6.974;2023-02-21T00:15:20;9.50;99.90
52513;DHT22;38422;53.172;6.974;2023-02-21T00:18:04;9.50;99.90
52513;DHT22;38422;53.172;6.974;2023-02-21T00:20:48;9.50;99.90
52513;DHT22;38422;53.172;6.974;2023-02-21T00:23:36;9.50;99.90
52513;DHT22;38422;53.172;6.974;2023-02-21T00:26:21;9.50;99.90
52513;DHT22;38422;53.172;6.974;2023-02-21T00:29:06;9.50;99.90
52513;DHT22;38422;53.172;6.974;2023-02-21T00:31:52;9.50;99.90
52513;DHT22;38422;53.172;6.974;2023-02-21T00:34:36;9.50;99.90
52513;DHT22;38422;53.172;6.974;2023-02-21T00:37:20;9.50;99.90
52513;DHT22;38422;53.172;6.974;2023-02-21T00:40:05;9.50;99.90
52513;DHT22;38422;53.172;6.974;2023-02-21T00:42:49;9.50;99.90
52513;DHT22;38422;53.172;6.974;2023-02-21T00:45:33;9.50;99.90
52513;DHT22;38422;53.172;6.974;2023-02-21T00:48:22;9.50;99.90
52513;DHT22;38422;53.172;6.974;2023-02-21T00:51:06;9.50;99.90
52513;DHT22;38422;53.172;6.974;2023-02-21T00:53:50;9.50;99.90
52513;DHT22;38422;53.172;6.974;2023-02-21T00:56:34;9.50;99.90
52513;DHT22;38422;53.172;6.974;2023-02-21T00:59:18;9.50;99.90
52513;DHT22;38422;53.172;6.974;2023-02-21T01:02:03;9.50;99.90
52513;DHT22;38422;53.172;6.974;2023-02-21T01:04:47;9.50;99.90
52513;DHT22;38422;53.172;6.974;2023-02-21T01:07:32;9.50;99.90
52513;DHT22;38422;53.172;6.974;2023-02-21T01:10:16;9.50;99.90
52513;DHT22;38422;53.172;6.974;2023-02-21T01:13:00;9.50;99.90
52513;DHT22;38422;53.172;6.974;2023-02-21T01:15:45;9.50;99.90
52513;DHT22;38422;53.172;6.974;2023-02-21T01:18:29;9.50;99.90
52513;DHT22;38422;53.172;6.974;2023-02-21T01:21:15;9.60;99.90
52513;DHT22;38422;53.172;6.974;2023-02-21T01:24:00;9.60;99.90
52513;DHT22;38422;53.172;6.974;2023-02-21T01:26:44;9.60;99.90
52513;DHT22;38422;53.172;6.974;2023-02-21T01:29:28;9.60;99.90
52513;DHT22;38422;53.172;6.974;2023-02-21T01:32:13;9.60;99.90
52513;DHT22;38422;53.172;6.974;2023-02-21T01:34:57;9.60;99.90
52513;DHT22;38422;53.172;6.974;2023-02-21T01:37:41;9.60;99.90
52513;DHT22;38422;53.172;6.974;2023-02-21T01:40:26;9.60;99.90
52513;DHT22;38422;53.172;6.974;2023-02-21T01:43:19;9.60;99.90
52513;DHT22;38422;53.172;6.974;2023-02-21T01:46:04;9.60;99.90
52513;DHT22;38422;53.172;6.974;2023-02-21T01:48:51;9.60;99.90
52513;DHT22;38422;53.172;6.974;2023-02-21T01:51:39;9.60;99.90
52513;DHT22;38422;53.172;6.974;2023-02-21T01:54:27;9.60;99.90
52513;DHT22;38422;53.172;6.974;2023-02-21T01:57:13;9.60;99.90
52513;DHT22;38422;53.172;6.974;2023-02-21T01:59:59;9.60;99.90
52513;DHT22;38422;53.172;6.974;2023-02-21T02:02:59;9.50;99.90
52513;DHT22;38422;53.172;6.974;2023-02-21T02:05:47;9.50;99.90
52513;DHT22;38422;53.172;6.974;2023-02-21T02:08:32;9.50;99.90
52513;DHT22;38422;53.172;6.974;2023-02-21T02:31:28;9.30;99.90
52513;DHT22;38422;53.172;6.974;2023-02-21T02:36:48;9.30;99.90
52513;DHT22;38422;53.172;6.974;2023-02-21T02:39:33;9.30;99.90
52513;DHT22;38422;53.172;6.974;2023-02-21T02:45:04;9.30;99.90
52513;DHT22;38422;53.172;6.974;2023-02-21T02:47:35;9.30;99.90
52513;DHT22;38422;53.172;6.974;2023-02-21T02:50:04;9.30;99.90
52513;DHT22;38422;53.172;6.974;2023-02-21T02:52:30;9.30;99.90
52513;DHT22;38422;53.172;6.974;2023-02-21T02:55:01;9.30;99.90
52513;DHT22;38422;53.172;6.974;2023-02-21T02:57:30;9.30;99.90
52513;DHT22;38422;53.172;6.974;2023-02-21T03:00:04;9.30;99.90
52513;DHT22;38422;53.172;6.974;2023-02-21T03:08:43;9.40;99.90
52513;DHT22;38422;53.172;6.974;2023-02-21T03:11:14;9.40;99.90
52513;DHT22;38422;53.172;6.974;2023-02-21T03:14:14;9.40;99.90
52513;DHT22;38422;53.172;6.974;2023-02-21T03:16:47;9.40;99.90
52513;DHT22;38422;53.172;6.974;2023-02-21T03:19:24;9.40;99.90
52513;DHT22;38422;53.172;6.974;2023-02-21T03:24:19;9.40;99.90
52513;DHT22;38422;53.172;6.974;2023-02-21T03:26:47;9.40;99.90
52513;DHT22;38422;53.172;6.974;2023-02-21T03:29:15;9.40;99.90
52513;DHT22;38422;53.172;6.974;2023-02-21T03:31:54;9.40;99.90
52513;DHT22;38422;53.172;6.974;2023-02-21T03:34:21;9.40;99.90
52513;DHT22;38422;53.172;6.974;2023-02-21T03:36:48;9.40;99.90
52513;DHT22;38422;53.172;6.974;2023-02-21T03:39:14;9.40;99.90
52513;DHT22;38422;53.172;6.974;2023-02-21T03:41:39;9.40;99.90
52513;DHT22;38422;53.172;6.974;2023-02-21T03:44:05;9.40;99.90
52513;DHT22;38422;53.172;6.974;2023-02-21T03:46:31;9.40;99.90
52513;DHT22;38422;53.172;6.974;2023-02-21T03:48:56;9.40;99.90
52513;DHT22;38422;53.172;6.974;2023-02-21T03:51:22;9.40;99.90
52513;DHT22;38422;53.172;6.974;2023-02-21T03:53:48;9.40;99.90
52513;DHT22;38422;53.172;6.974;2023-02-21T03:56:13;9.40;99.90
52513;DHT22;38422;53.172;6.974;2023-02-21T03:58:39;9.40;99.90
52513;DHT22;38422;53.172;6.974;2023-02-21T04:01:05;9.40;99.90
52513;DHT22;38422;53.172;6.974;2023-02-21T04:03:31;9.40;99.90
52513;DHT22;38422;53.172;6.974;2023-02-21T04:05:56;9.40;99.90
52513;DHT22;38422;53.172;6.974;2023-02-21T04:08:22;9.40;99.90
52513;DHT22;38422;53.172;6.974;2023-02-21T04:10:48;9.40;99.90
52513;DHT22;38422;53.172;6.974;2023-02-21T04:13:13;9.40;99.90
52513;DHT22;38422;53.172;6.974;2023-02-21T04:15:39;9.40;99.90
52513;DHT22;38422;53.172;6.974;2023-02-21T04:18:05;9.40;99.90
52513;DHT22;38422;53.172;6.974;2023-02-21T04:20:30;9.40;99.90
52513;DHT22;38422;53.172;6.974;2023-02-21T04:22:56;9.40;99.90
52513;DHT22;38422;53.172;6.974;2023-02-21T04:25:22;9.40;99.90
52513;DHT22;38422;53.172;6.974;2023-02-21T04:27:48;9.40;99.90
52513;DHT22;38422;53.172;6.974;2023-02-21T04:30:14;9.40;99.90
52513;DHT22;38422;53.172;6.974;2023-02-21T04:32:39;9.40;99.90
52513;DHT22;38422;53.172;6.974;2023-02-21T04:35:05;9.40;99.90
52513;DHT22;38422;53.172;6.974;2023-02-21T04:37:31;9.40;99.90
52513;DHT22;38422;53.172;6.974;2023-02-21T04:39:57;9.40;99.90
52513;DHT22;38422;53.172;6.974;2023-02-21T04:42:23;9.40;99.90
52513;DHT22;38422;53.172;6.974;2023-02-21T04:44:49;9.40;99.90
52513;DHT22;38422;53.172;6.974;2023-02-21T04:47:14;9.40;99.90
52513;DHT22;38422;53.172;6.974;2023-02-21T04:49:40;9.40;99.90
52513;DHT22;38422;53.172;6.974;2023-02-21T04:52:06;9.40;99.90
52513;DHT22;38422;53.172;6.974;2023-02-21T04:54:31;9.40;99.90
52513;DHT22;38422;53.172;6.974;2023-02-21T04:56:57;9.40;99.90
52513;DHT22;38422;53.172;6.974;2023-02-21T04:59:23;9.40;99.90
52513;DHT22;38422;53.172;6.974;2023-02-21T05:01:48;9.40;99.90
52513;DHT22;38422;53.172;6.974;2023-02-21T05:04:14;9.40;99.90
52513;DHT22;38422;53.172;6.974;2023-02-21T05:06:40;9.30;99.90
52513;DHT22;38422;53.172;6.974;2023-02-21T05:09:05;9.30;99.90
52513;DHT22;38422;53.172;6.974;2023-02-21T05:11:33;9.30;99.90
52513;DHT22;38422;53.172;6.974;2023-02-21T05:14:02;9.40;99.90
52513;DHT22;38422;53.172;6.974;2023-02-21T05:16:28;9.30;99.90
52513;DHT22;38422;53.172;6.974;2023-02-21T05:18:54;9.30;99.90
52513;DHT22;38422;53.172;6.974;2023-02-21T05:21:20;9.30;99.90
52513;DHT22;38422;53.172;6.974;2023-02-21T05:23:46;9.30;99.90
52513;DHT22;38422;53.172;6.974;2023-02-21T05:26:24;9.30;99.90
52513;DHT22;38422;53.172;6.974;2023-02-21T05:28:50;9.30;99.90
52513;DHT22;38422;53.172;6.974;2023-02-21T05:31:17;9.30;99.90
52513;DHT22;38422;53.172;6.974;2023-02-21T05:33:43;9.30;99.90
52513;DHT22;38422;53.172;6.974;2023-02-21T05:36:08;9.30;99.90
52513;DHT22;38422;53.172;6.974;2023-02-21T05:38:47;9.30;99.90
52513;DHT22;38422;53.172;6.974;2023-02-21T05:41:14;9.30;99.90
52513;DHT22;38422;53.172;6.974;2023-02-21T05:43:42;9.30;99.90
52513;DHT22;38422;53.172;6.974;2023-02-21T05:46:33;9.30;99.90
52513;DHT22;38422;53.172;6.974;2023-02-21T05:49:01;9.30;99.90
52513;DHT22;38422;53.172;6.974;2023-02-21T05:51:33;9.30;99.90
52513;DHT22;38422;53.172;6.974;2023-02-21T05:53:59;9.30;99.90
52513;DHT22;38422;53.172;6.974;2023-02-21T05:56:24;9.30;99.90
52513;DHT22;38422;53.172;6.974;2023-02-21T05:58:50;9.30;99.90
52513;DHT22;38422;53.172;6.974;2023-02-21T06:01:16;9.30;99.90
52513;DHT22;38422;53.172;6.974;2023-02-21T06:03:42;9.30;99.90
52513;DHT22;38422;53.172;6.974;2023-02-21T06:06:08;9.30;99.90
52513;DHT22;38422;53.172;6.974;2023-02-21T06:08:42;9.30;99.90
52513;DHT22;38422;53.172;6.974;2023-02-21T06:11:08;9.30;99.90
52513;DHT22;38422;53.172;6.974;2023-02-21T06:13:33;9.30;99.90
52513;DHT22;38422;53.172;6.974;2023-02-21T06:15:59;9.30;99.90
52513;DHT22;38422;53.172;6.974;2023-02-21T06:18:25;9.30;99.90
52513;DHT22;38422;53.172;6.974;2023-02-21T06:20:50;9.30;99.90
52513;DHT22;38422;53.172;6.974;2023-02-21T06:23:16;9.30;99.90
52513;DHT22;38422;53.172;6.974;2023-02-21T06:25:41;9.30;99.90
52513;DHT22;38422;53.172;6.974;2023-02-21T06:28:07;9.30;99.90
52513;DHT22;38422;53.172;6.974;2023-02-21T06:30:33;9.30;99.90
52513;DHT22;38422;53.172;6.974;2023-02-21T06:32:59;9.30;99.90
52513;DHT22;38422;53.172;6.974;2023-02-21T06:35:24;9.30;99.90
52513;DHT22;38422;53.172;6.974;2023-02-21T06:37:50;9.30;99.90
52513;DHT22;38422;53.172;6.974;2023-02-21T06:40:16;9.20;99.90
52513;DHT22;38422;53.172;6.974;2023-02-21T06:42:42;9.30;99.90
52513;DHT22;38422;53.172;6.974;2023-02-21T06:45:07;9.30;99.90
52513;DHT22;38422;53.172;6.974;2023-02-21T06:47:33;9.20;99.90
52513;DHT22;38422;53.172;6.974;2023-02-21T06:49:59;9.20;99.90
52513;DHT22;38422;53.172;6.974;2023-02-21T06:52:24;9.20;99.90
52513;DHT22;38422;53.172;6.974;2023-02-21T06:54:50;9.20;99.90
52513;DHT22;38422;53.172;6.974;2023-02-21T06:57:16;9.20;99.90
52513;DHT22;38422;53.172;6.974;2023-02-21T06:59:42;9.20;99.90
52513;DHT22;38422;53.172;6.974;2023-02-21T07:02:15;9.20;99.90
52513;DHT22;38422;53.172;6.974;2023-02-21T07:04:43;9.20;99.90
52513;DHT22;38422;53.172;6.974;2023-02-21T07:07:08;9.20;99.90
52513;DHT22;38422;53.172;6.974;2023-02-21T07:09:34;9.20;99.90
52513;DHT22;38422;53.172;6.974;2023-02-21T07:12:00;9.20;99.90
52513;DHT22;38422;53.172;6.974;2023-02-21T07:14:27;9.20;99.90
52513;DHT22;38422;53.172;6.974;2023-02-21T07:16:53;9.20;99.90
52513;DHT22;38422;53.172;6.974;2023-02-21T07:19:19;9.20;99.90
52513;DHT22;38422;53.172;6.974;2023-02-21T07:21:44;9.20;99.90
52513;DHT22;38422;53.172;6.974;2023-02-21T07:24:10;9.30;99.90
52513;DHT22;38422;53.172;6.974;2023-02-21T07:26:36;9.30;99.90
52513;DHT22;38422;53.172;6.974;2023-02-21T07:29:03;9.30;99.90
52513;DHT22;38422;53.172;6.974;2023-02-21T07:31:29;9.30;99.90
52513;DHT22;38422;53.172;6.974;2023-02-21T07:33:54;9.30;99.90
52513;DHT22;38422;53.172;6.974;2023-02-21T07:36:20;9.30;99.90
52513;DHT22;38422;53.172;6.974;2023-02-21T07:38:48;9.30;99.90
52513;DHT22;38422;53.172;6.974;2023-02-21T07:41:14;9.30;99.90
52513;DHT22;38422;53.172;6.974;2023-02-21T07:43:40;9.30;99.90
52513;DHT22;38422;53.172;6.974;2023-02-21T07:46:11;9.30;99.90
52513;DHT22;38422;53.172;6.974;2023-02-21T07:48:36;9.30;99.90
52513;DHT22;38422;53.172;6.974;2023-02-21T07:51:02;9.30;99.90
52513;DHT22;38422;53.172;6.974;2023-02-21T07:53:29;9.30;99.90
52513;DHT22;38422;53.172;6.974;2023-02-21T07:55:55;9.40;99.90
52513;DHT22;38422;53.172;6.974;2023-02-21T07:58:20;9.40;99.90
52513;DHT22;38422;53.172;6.974;2023-02-21T08:00:46;9.40;99.90
52513;DHT22;38422;53.172;6.974;2023-02-21T08:03:12;9.40;99.90
52513;DHT22;38422;53.172;6.974;2023-02-21T08:05:38;9.40;99.90
52513;DHT22;38422;53.172;6.974;2023-02-21T08:08:08;9.40;99.90
52513;DHT22;38422;53.172;6.974;2023-02-21T08:10:35;9.40;99.90
52513;DHT22;38422;53.172;6.974;2023-02-21T08:13:00;9.40;99.90
52513;DHT22;38422;53.172;6.974;2023-02-21T08:15:26;9.40;99.90
52513;DHT22;38422;53.172;6.974;2023-02-21T08:17:52;9.50;99.90
52513;DHT22;38422;53.172;6.974;2023-02-21T08:20:18;9.50;99.90
52513;DHT22;38422;53.172;6.974;2023-02-21T08:22:44;9.50;99.90
52513;DHT22;38422;53.172;6.974;2023-02-21T08:25:14;9.60;99.90
52513;DHT22;38422;53.172;6.974;2023-02-21T08:27:43;9.60;99.90
52513;DHT22;38422;53.172;6.974;2023-02-21T08:30:11;9.60;99.90
52513;DHT22;38422;53.172;6.974;2023-02-21T08:32:39;9.60;99.90
52513;DHT22;38422;53.172;6.974;2023-02-21T08:35:06;9.60;99.90
52513;DHT22;38422;53.172;6.974;2023-02-21T08:37:33;9.70;99.90
52513;DHT22;38422;53.172;6.974;2023-02-21T08:40:01;9.70;99.90
52513;DHT22;38422;53.172;6.974;2023-02-21T08:42:27;9.70;99.90
52513;DHT22;38422;53.172;6.974;2023-02-21T08:44:52;9.70;99.90
52513;DHT22;38422;53.172;6.974;2023-02-21T08:47:18;9.70;99.90
52513;DHT22;38422;53.172;6.974;2023-02-21T08:49:45;9.70;99.90
52513;DHT22;38422;53.172;6.974;2023-02-21T08:52:15;9.80;99.90
52513;DHT22;38422;53.172;6.974;2023-02-21T08:54:42;9.90;99.90
52513;DHT22;38422;53.172;6.974;2023-02-21T08:57:09;9.90;99.90
52513;DHT22;38422;53.172;6.974;2023-02-21T08:59:34;9.90;99.90
52513;DHT22;38422;53.172;6.974;2023-02-21T09:02:02;9.90;99.90
52513;DHT22;38422;53.172;6.974;2023-02-21T09:04:27;9.90;99.90
52513;DHT22;38422;53.172;6.974;2023-02-21T09:06:54;10.00;99.90
52513;DHT22;38422;53.172;6.974;2023-02-21T09:09:20;9.90;99.90
52513;DHT22;38422;53.172;6.974;2023-02-21T09:11:46;9.90;99.90
52513;DHT22;38422;53.172;6.974;2023-02-21T09:14:15;10.00;99.90
52513;DHT22;38422;53.172;6.974;2023-02-21T09:16:40;10.00;99.90
52513;DHT22;38422;53.172;6.974;2023-02-21T09:19:08;10.00;99.90
52513;DHT22;38422;53.172;6.974;2023-02-21T09:21:34;10.00;99.90
52513;DHT22;38422;53.172;6.974;2023-02-21T09:23:59;10.00;99.90
52513;DHT22;38422;53.172;6.974;2023-02-21T09:26:27;10.10;99.90
52513;DHT22;38422;53.172;6.974;2023-02-21T09:28:56;10.10;99.90
52513;DHT22;38422;53.172;6.974;2023-02-21T09:31:22;10.10;99.90
52513;DHT22;38422;53.172;6.974;2023-02-21T09:33:48;10.10;99.90
52513;DHT22;38422;53.172;6.974;2023-02-21T09:36:14;10.20;99.90
52513;DHT22;38422;53.172;6.974;2023-02-21T09:38:39;10.20;99.90
52513;DHT22;38422;53.172;6.974;2023-02-21T09:41:08;10.20;99.90
52513;DHT22;38422;53.172;6.974;2023-02-21T09:43:37;10.20;99.90
52513;DHT22;38422;53.172;6.974;2023-02-21T09:48:56;10.20;99.90
52513;DHT22;38422;53.172;6.974;2023-02-21T09:51:23;10.20;99.90
52513;DHT22;38422;53.172;6.974;2023-02-21T09:53:53;10.20;99.90
52513;DHT22;38422;53.172;6.974;2023-02-21T09:56:49;10.30;99.90
52513;DHT22;38422;53.172;6.974;2023-02-21T09:59:15;10.30;99.90
52513;DHT22;38422;53.172;6.974;2023-02-21T10:02:13;10.30;99.90
52513;DHT22;38422;53.172;6.974;2023-02-21T10:05:12;10.40;99.90
52513;DHT22;38422;53.172;6.974;2023-02-21T10:10:53;10.40;99.90
52513;DHT22;38422;53.172;6.974;2023-02-21T10:18:51;10.50;99.90
52513;DHT22;38422;53.172;6.974;2023-02-21T10:23:53;10.50;99.90
52513;DHT22;38422;53.172;6.974;2023-02-21T10:26:29;10.50;99.90
52513;DHT22;38422;53.172;6.974;2023-02-21T10:28:55;10.50;99.90
52513;DHT22;38422;53.172;6.974;2023-02-21T10:31:38;10.50;99.90
52513;DHT22;38422;53.172;6.974;2023-02-21T10:34:17;10.50;99.90
52513;DHT22;38422;53.172;6.974;2023-02-21T10:36:43;10.50;99.90
52513;DHT22;38422;53.172;6.974;2023-02-21T10:39:17;10.50;99.90
52513;DHT22;38422;53.172;6.974;2023-02-21T10:41:43;10.60;99.90
52513;DHT22;38422;53.172;6.974;2023-02-21T10:44:20;10.60;99.90
52513;DHT22;38422;53.172;6.974;2023-02-21T10:46:57;10.60;99.90
52513;DHT22;38422;53.172;6.974;2023-02-21T10:49:30;10.60;99.90
52513;DHT22;38422;53.172;6.974;2023-02-21T10:52:17;10.60;99.90
52513;DHT22;38422;53.172;6.974;2023-02-21T10:55:06;10.60;99.90
52513;DHT22;38422;53.172;6.974;2023-02-21T10:57:41;10.60;99.90
52513;DHT22;38422;53.172;6.974;2023-02-21T11:00:08;10.70;99.90
52513;DHT22;38422;53.172;6.974;2023-02-21T11:02:42;10.70;99.90
52513;DHT22;38422;53.172;6.974;2023-02-21T11:05:19;10.70;99.90
52513;DHT22;38422;53.172;6.974;2023-02-21T11:10:31;10.60;99.90
52513;DHT22;38422;53.172;6.974;2023-02-21T11:13:18;10.60;99.90
52513;DHT22;38422;53.172;6.974;2023-02-21T11:15:45;10.70;99.90
52513;DHT22;38422;53.172;6.974;2023-02-21T11:20:46;10.70;99.90
52513;DHT22;38422;53.172;6.974;2023-02-21T11:23:25;10.70;99.90
52513;DHT22;38422;53.172;6.974;2023-02-21T11:25:57;10.70;99.90
52513;DHT22;38422;53.172;6.974;2023-02-21T11:28:24;10.70;99.90
52513;DHT22;38422;53.172;6.974;2023-02-21T11:33:30;10.70;99.90
52513;DHT22;38422;53.172;6.974;2023-02-21T11:36:16;10.70;99.90
52513;DHT22;38422;53.172;6.974;2023-02-21T11:38:44;10.80;99.90
52513;DHT22;38422;53.172;6.974;2023-02-21T11:41:28;10.80;99.90
52513;DHT22;38422;53.172;6.974;2023-02-21T11:43:55;10.80;99.90
52513;DHT22;38422;53.172;6.974;2023-02-21T11:46:57;10.80;99.90
52513;DHT22;38422;53.172;6.974;2023-02-21T11:52:02;10.80;99.90
52513;DHT22;38422;53.172;6.974;2023-02-21T11:54:30;10.80;99.90
52513;DHT22;38422;53.172;6.974;2023-02-21T11:59:55;10.80;99.90
52513;DHT22;38422;53.172;6.974;2023-02-21T12:02:35;10.80;99.90
52513;DHT22;38422;53.172;6.974;2023-02-21T12:08:42;10.80;99.90
52513;DHT22;38422;53.172;6.974;2023-02-21T12:48:19;11.00;99.90
52513;DHT22;38422;53.172;6.974;2023-02-21T12:50:49;11.00;99.90
52513;DHT22;38422;53.172;6.974;2023-02-21T12:53:28;11.00;99.90
52513;DHT22;38422;53.172;6.974;2023-02-21T12:58:33;11.00;99.90
52513;DHT22;38422;53.172;6.974;2023-02-21T13:01:06;11.00;99.90
52513;DHT22;38422;53.172;6.974;2023-02-21T13:06:56;11.10;99.90
52513;DHT22;38422;53.172;6.974;2023-02-21T13:09:30;11.00;99.90
52513;DHT22;38422;53.172;6.974;2023-02-21T13:12:11;11.00;99.90
52513;DHT22;38422;53.172;6.974;2023-02-21T13:14:47;11.00;99.90
52513;DHT22;38422;53.172;6.974;2023-02-21T13:17:16;11.00;99.90
52513;DHT22;38422;53.172;6.974;2023-02-21T13:19:51;11.10;99.90
52513;DHT22;38422;53.172;6.974;2023-02-21T13:22:36;11.00;99.90
52513;DHT22;38422;53.172;6.974;2023-02-21T13:25:39;11.00;99.90
52513;DHT22;38422;53.172;6.974;2023-02-21T13:28:14;11.00;99.90
52513;DHT22;38422;53.172;6.974;2023-02-21T13:30:45;11.00;99.90
52513;DHT22;38422;53.172;6.974;2023-02-21T13:33:42;11.00;99.90
52513;DHT22;38422;53.172;6.974;2023-02-21T13:36:21;11.00;99.90
52513;DHT22;38422;53.172;6.974;2023-02-21T13:41:39;11.00;99.90
52513;DHT22;38422;53.172;6.974;2023-02-21T13:44:08;11.00;99.90
52513;DHT22;38422;53.172;6.974;2023-02-21T14:10:57;10.80;99.90
52513;DHT22;38422;53.172;6.974;2023-02-21T14:13:40;10.70;99.90
52513;DHT22;38422;53.172;6.974;2023-02-21T14:24:02;10.70;99.90
52513;DHT22;38422;53.172;6.974;2023-02-21T14:29:41;10.60;99.90
52513;DHT22;38422;53.172;6.974;2023-02-21T14:34:39;10.60;99.90
52513;DHT22;38422;53.172;6.974;2023-02-21T14:37:21;10.50;99.90
52513;DHT22;38422;53.172;6.974;2023-02-21T14:48:51;10.40;99.90
52513;DHT22;38422;53.172;6.974;2023-02-21T15:05:32;10.40;99.90
52513;DHT22;38422;53.172;6.974;2023-02-21T15:08:24;10.40;99.90
52513;DHT22;38422;53.172;6.974;2023-02-21T15:11:00;10.30;99.90
52513;DHT22;38422;53.172;6.974;2023-02-21T15:13:29;10.30;99.90
52513;DHT22;38422;53.172;6.974;2023-02-21T15:16:07;10.30;99.90
52513;DHT22;38422;53.172;6.974;2023-02-21T15:18:35;10.30;99.90
52513;DHT22;38422;53.172;6.974;2023-02-21T15:21:14;10.20;99.90
52513;DHT22;38422;53.172;6.974;2023-02-21T15:23:46;10.20;99.90
52513;DHT22;38422;53.172;6.974;2023-02-21T15:26:24;10.20;99.90
52513;DHT22;38422;53.172;6.974;2023-02-21T15:29:12;10.20;99.90
52513;DHT22;38422;53.172;6.974;2023-02-21T15:31:51;10.10;99.90
52513;DHT22;38422;53.172;6.974;2023-02-21T15:34:22;10.10;99.90
52513;DHT22;38422;53.172;6.974;2023-02-21T15:39:32;10.10;99.90
52513;DHT22;38422;53.172;6.974;2023-02-21T15:41:59;10.10;99.90
52513;DHT22;38422;53.172;6.974;2023-02-21T15:44:40;10.10;99.90
52513;DHT22;38422;53.172;6.974;2023-02-21T15:47:10;10.10;99.90
52513;DHT22;38422;53.172;6.974;2023-02-21T15:49:41;10.10;99.90
52513;DHT22;38422;53.172;6.974;2023-02-21T15:53:09;10.10;99.90
52513;DHT22;38422;53.172;6.974;2023-02-21T16:00:34;10.10;99.90
52513;DHT22;38422;53.172;6.974;2023-02-21T16:05:52;10.10;99.90
52513;DHT22;38422;53.172;6.974;2023-02-21T16:08:20;10.10;99.90
52513;DHT22;38422;53.172;6.974;2023-02-21T16:10:47;10.00;99.90
52513;DHT22;38422;53.172;6.974;2023-02-21T16:13:13;10.00;99.90
52513;DHT22;38422;53.172;6.974;2023-02-21T16:15:40;10.00;99.90
52513;DHT22;38422;53.172;6.974;2023-02-21T16:18:10;10.00;99.90
52513;DHT22;38422;53.172;6.974;2023-02-21T16:20:42;10.00;99.90
52513;DHT22;38422;53.172;6.974;2023-02-21T16:23:34;10.00;99.90
52513;DHT22;38422;53.172;6.974;2023-02-21T16:28:38;10.00;99.90
52513;DHT22;38422;53.172;6.974;2023-02-21T16:31:04;10.00;99.90
52513;DHT22;38422;53.172;6.974;2023-02-21T16:33:30;9.90;99.90
52513;DHT22;38422;53.172;6.974;2023-02-21T16:35:58;9.90;99.90
52513;DHT22;38422;53.172;6.974;2023-02-21T16:38:25;9.90;99.90
52513;DHT22;38422;53.172;6.974;2023-02-21T16:40:51;9.90;99.90
52513;DHT22;38422;53.172;6.974;2023-02-21T16:43:23;10.00;99.90
52513;DHT22;38422;53.172;6.974;2023-02-21T16:45:52;9.90;99.90
52513;DHT22;38422;53.172;6.974;2023-02-21T16:48:20;9.90;99.90
52513;DHT22;38422;53.172;6.974;2023-02-21T16:50:48;9.90;99.90
52513;DHT22;38422;53.172;6.974;2023-02-21T16:53:15;9.90;99.90
52513;DHT22;38422;53.172;6.974;2023-02-21T16:55:42;9.90;99.90
52513;DHT22;38422;53.172;6.974;2023-02-21T17:00:41;9.80;99.90
52513;DHT22;38422;53.172;6.974;2023-02-21T17:03:06;9.80;99.90
52513;DHT22;38422;53.172;6.974;2023-02-21T17:05:32;9.90;99.90
52513;DHT22;38422;53.172;6.974;2023-02-21T17:08:00;9.80;99.90
52513;DHT22;38422;53.172;6.974;2023-02-21T17:10:27;9.80;99.90
52513;DHT22;38422;53.172;6.974;2023-02-21T17:12:53;9.80;99.90
52513;DHT22;38422;53.172;6.974;2023-02-21T17:15:19;9.70;99.90
52513;DHT22;38422;53.172;6.974;2023-02-21T17:17:46;9.70;99.90
52513;DHT22;38422;53.172;6.974;2023-02-21T17:20:17;9.70;99.90
52513;DHT22;38422;53.172;6.974;2023-02-21T17:22:43;9.70;99.90
52513;DHT22;38422;53.172;6.974;2023-02-21T17:25:09;9.70;99.90
52513;DHT22;38422;53.172;6.974;2023-02-21T17:27:35;9.70;99.90
52513;DHT22;38422;53.172;6.974;2023-02-21T17:30:02;9.70;99.90
52513;DHT22;38422;53.172;6.974;2023-02-21T17:32:28;9.70;99.90
52513;DHT22;38422;53.172;6.974;2023-02-21T17:34:55;9.70;99.90
52513;DHT22;38422;53.172;6.974;2023-02-21T17:37:20;9.70;99.90
52513;DHT22;38422;53.172;6.974;2023-02-21T17:39:51;9.60;99.90
52513;DHT22;38422;53.172;6.974;2023-02-21T17:42:16;9.70;99.90
52513;DHT22;38422;53.172;6.974;2023-02-21T17:44:42;9.70;99.90
52513;DHT22;38422;53.172;6.974;2023-02-21T17:47:11;9.70;99.90
52513;DHT22;38422;53.172;6.974;2023-02-21T17:49:37;9.60;99.90
52513;DHT22;38422;53.172;6.974;2023-02-21T17:52:03;9.60;99.90
52513;DHT22;38422;53.172;6.974;2023-02-21T17:54:29;9.60;99.90
52513;DHT22;38422;53.172;6.974;2023-02-21T17:56:55;9.60;99.90
52513;DHT22;38422;53.172;6.974;2023-02-21T17:59:20;9.60;99.90
52513;DHT22;38422;53.172;6.974;2023-02-21T18:01:47;9.60;99.90
52513;DHT22;38422;53.172;6.974;2023-02-21T18:04:13;9.60;99.90
52513;DHT22;38422;53.172;6.974;2023-02-21T18:06:40;9.60;99.90
52513;DHT22;38422;53.172;6.974;2023-02-21T18:09:06;9.60;99.90
52513;DHT22;38422;53.172;6.974;2023-02-21T18:11:33;9.60;99.90
52513;DHT22;38422;53.172;6.974;2023-02-21T18:14:03;9.60;99.90
52513;DHT22;38422;53.172;6.974;2023-02-21T18:16:29;9.50;99.90
52513;DHT22;38422;53.172;6.974;2023-02-21T18:18:55;9.50;99.90
52513;DHT22;38422;53.172;6.974;2023-02-21T18:21:20;9.50;99.90
52513;DHT22;38422;53.172;6.974;2023-02-21T18:23:49;9.50;99.90
52513;DHT22;38422;53.172;6.974;2023-02-21T18:26:15;9.50;99.90
52513;DHT22;38422;53.172;6.974;2023-02-21T18:28:41;9.50;99.90
52513;DHT22;38422;53.172;6.974;2023-02-21T18:31:07;9.50;99.90
52513;DHT22;38422;53.172;6.974;2023-02-21T18:33:32;9.50;99.90
52513;DHT22;38422;53.172;6.974;2023-02-21T18:35:58;9.50;99.90
52513;DHT22;38422;53.172;6.974;2023-02-21T18:38:25;9.50;99.90
52513;DHT22;38422;53.172;6.974;2023-02-21T18:40:52;9.50;99.90
52513;DHT22;38422;53.172;6.974;2023-02-21T18:43:27;9.50;99.90
52513;DHT22;38422;53.172;6.974;2023-02-21T18:45:55;9.50;99.90
52513;DHT22;38422;53.172;6.974;2023-02-21T18:48:22;9.40;99.90
52513;DHT22;38422;53.172;6.974;2023-02-21T18:50:48;9.40;99.90
52513;DHT22;38422;53.172;6.974;2023-02-21T18:53:15;9.40;99.90
52513;DHT22;38422;53.172;6.974;2023-02-21T18:55:41;9.40;99.90
52513;DHT22;38422;53.172;6.974;2023-02-21T18:58:07;9.40;99.90
52513;DHT22;38422;53.172;6.974;2023-02-21T19:00:34;9.40;99.90
52513;DHT22;38422;53.172;6.974;2023-02-21T19:03:02;9.40;99.90
52513;DHT22;38422;53.172;6.974;2023-02-21T19:05:28;9.40;99.90
52513;DHT22;38422;53.172;6.974;2023-02-21T19:07:54;9.40;99.90
52513;DHT22;38422;53.172;6.974;2023-02-21T19:10:22;9.30;99.90
52513;DHT22;38422;53.172;6.974;2023-02-21T19:12:49;9.30;99.90
52513;DHT22;38422;53.172;6.974;2023-02-21T19:15:15;9.30;99.90
52513;DHT22;38422;53.172;6.974;2023-02-21T19:17:41;9.30;99.90